sensor_id;sensor_type;location;lat;lon;timestamp;P1;durP1;ratioP1;P2;durP2;ratioP2
75878;SDS011;64555;43.430;4.942;2022-11-21T00:01:48;5.50;;;5.00;;
75878;SDS011;64555;43.430;4.942;2022-11-21T00:04:13;4.00;;;4.00;;
75878;SDS011;64555;43.430;4.942;2022-11-21T00:06:38;4.00;;;4.00;;
75878;SDS011;64555;43.430;4.942;2022-11-21T00:09:04;4.00;;;3.33;;
75878;SDS011;64555;43.430;4.942;2022-11-21T00:11:29;4.00;;;4.00;;
75878;SDS011;64555;43.430;4.942;2022-11-21T00:13:54;3.25;;;3.00;;
75878;SDS011;64555;43.430;4.942;2022-11-21T00:16:19;2.00;;;2.00;;
75878;SDS011;64555;43.430;4.942;2022-11-21T00:18:45;4.00;;;4.00;;
75878;SDS011;64555;43.430;4.942;2022-11-21T00:21:11;8.00;;;5.00;;
75878;SDS011;64555;43.430;4.942;2022-11-21T00:23:37;3.00;;;3.00;;
75878;SDS011;64555;43.430;4.942;2022-11-21T00:26:03;2.75;;;2.75;;
75878;SDS011;64555;43.430;4.942;2022-11-21T00:28:28;3.80;;;3.80;;
75878;SDS011;64555;43.430;4.942;2022-11-21T00:30:53;2.00;;;2.00;;
75878;SDS011;64555;43.430;4.942;2022-11-21T00:33:19;3.75;;;2.25;;
75878;SDS011;64555;43.430;4.942;2022-11-21T00:35:44;5.25;;;4.00;;
75878;SDS011;64555;43.430;4.942;2022-11-21T00:38:09;3.00;;;3.00;;
75878;SDS011;64555;43.430;4.942;2022-11-21T00:40:34;2.00;;;2.00;;
75878;SDS011;64555;43.430;4.942;2022-11-21T00:43:00;2.00;;;2.00;;
75878;SDS011;64555;43.430;4.942;2022-11-21T00:45:25;3.75;;;3.75;;
75878;SDS011;64555;43.430;4.942;2022-11-21T00:47:50;5.00;;;3.00;;
75878;SDS011;64555;43.430;4.942;2022-11-21T00:50:16;4.00;;;3.00;;
75878;SDS011;64555;43.430;4.942;2022-11-21T00:52:41;2.33;;;2.33;;
75878;SDS011;64555;43.430;4.942;2022-11-21T00:55:06;4.67;;;4.00;;
75878;SDS011;64555;43.430;4.942;2022-11-21T00:57:32;5.00;;;3.00;;
75878;SDS011;64555;43.430;4.942;2022-11-21T00:59:57;3.00;;;3.00;;
75878;SDS011;64555;43.430;4.942;2022-11-21T01:02:22;3.00;;;3.00;;
75878;SDS011;64555;43.430;4.942;2022-11-21T01:04:47;3.25;;;3.25;;
75878;SDS011;64555;43.430;4.942;2022-11-21T01:07:13;3.00;;;3.00;;
75878;SDS011;64555;43.430;4.942;2022-11-21T01:09:38;4.00;;;4.00;;
75878;SDS011;64555;43.430;4.942;2022-11-21T01:12:04;4.00;;;4.00;;
75878;SDS011;64555;43.430;4.942;2022-11-21T01:14:29;3.00;;;3.00;;
75878;SDS011;64555;43.430;4.942;2022-11-21T01:16:54;5.00;;;3.00;;
75878;SDS011;64555;43.430;4.942;2022-11-21T01:19:19;3.00;;;2.00;;
75878;SDS011;64555;43.430;4.942;2022-11-21T01:21:45;4.33;;;3.00;;
75878;SDS011;64555;43.430;4.942;2022-11-21T01:24:10;3.00;;;3.00;;
75878;SDS011;64555;43.430;4.942;2022-11-21T01:26:36;4.00;;;4.00;;
75878;SDS011;64555;43.430;4.942;2022-11-21T01:29:02;7.00;;;6.60;;
75878;SDS011;64555;43.430;4.942;2022-11-21T01:31:28;7.50;;;5.50;;
75878;SDS011;64555;43.430;4.942;2022-11-21T01:33:53;9.75;;;6.75;;
75878;SDS011;64555;43.430;4.942;2022-11-21T01:36:21;9.33;;;4.00;;
75878;SDS011;64555;43.430;4.942;2022-11-21T01:38:48;6.00;;;6.00;;
75878;SDS011;64555;43.430;4.942;2022-11-21T01:41:15;8.50;;;7.50;;
75878;SDS011;64555;43.430;4.942;2022-11-21T01:43:41;13.40;;;8.00;;
75878;SDS011;64555;43.430;4.942;2022-11-21T01:48:40;6.00;;;5.00;;
75878;SDS011;64555;43.430;4.942;2022-11-21T01:53:43;7.40;;;6.40;;
75878;SDS011;64555;43.430;4.942;2022-11-21T01:56:08;5.50;;;5.50;;
75878;SDS011;64555;43.430;4.942;2022-11-21T01:58:34;7.00;;;5.20;;
75878;SDS011;64555;43.430;4.942;2022-11-21T02:01:01;12.00;;;10.60;;
75878;SDS011;64555;43.430;4.942;2022-11-21T02:03:28;20.60;;;17.80;;
75878;SDS011;64555;43.430;4.942;2022-11-21T02:05:56;17.00;;;14.00;;
75878;SDS011;64555;43.430;4.942;2022-11-21T02:08:22;10.00;;;7.60;;
75878;SDS011;64555;43.430;4.942;2022-11-21T02:10:53;10.20;;;6.80;;
75878;SDS011;64555;43.430;4.942;2022-11-21T02:13:22;7.00;;;6.00;;
75878;SDS011;64555;43.430;4.942;2022-11-21T02:15:47;6.00;;;5.00;;
75878;SDS011;64555;43.430;4.942;2022-11-21T02:18:13;4.00;;;3.25;;
75878;SDS011;64555;43.430;4.942;2022-11-21T02:20:38;7.33;;;5.00;;
75878;SDS011;64555;43.430;4.942;2022-11-21T02:23:13;6.60;;;4.60;;
75878;SDS011;64555;43.430;4.942;2022-11-21T02:25:41;3.20;;;3.20;;
75878;SDS011;64555;43.430;4.942;2022-11-21T02:28:08;4.00;;;3.00;;
75878;SDS011;64555;43.430;4.942;2022-11-21T02:30:37;3.00;;;3.00;;
75878;SDS011;64555;43.430;4.942;2022-11-21T02:33:03;2.25;;;2.25;;
75878;SDS011;64555;43.430;4.942;2022-11-21T02:35:28;4.00;;;2.00;;
75878;SDS011;64555;43.430;4.942;2022-11-21T02:37:58;2.75;;;2.75;;
75878;SDS011;64555;43.430;4.942;2022-11-21T02:40:24;4.00;;;3.00;;
75878;SDS011;64555;43.430;4.942;2022-11-21T02:45:24;4.00;;;2.40;;
75878;SDS011;64555;43.430;4.942;2022-11-21T02:47:52;4.00;;;3.00;;
75878;SDS011;64555;43.430;4.942;2022-11-21T02:50:19;5.00;;;3.00;;
75878;SDS011;64555;43.430;4.942;2022-11-21T02:52:46;3.00;;;2.40;;
75878;SDS011;64555;43.430;4.942;2022-11-21T02:55:11;3.00;;;2.00;;
75878;SDS011;64555;43.430;4.942;2022-11-21T02:57:39;3.00;;;3.00;;
75878;SDS011;64555;43.430;4.942;2022-11-21T03:00:04;4.00;;;3.00;;
75878;SDS011;64555;43.430;4.942;2022-11-21T03:02:30;2.50;;;2.50;;
75878;SDS011;64555;43.430;4.942;2022-11-21T03:04:55;3.67;;;3.67;;
75878;SDS011;64555;43.430;4.942;2022-11-21T03:07:20;5.50;;;4.00;;
75878;SDS011;64555;43.430;4.942;2022-11-21T03:09:45;2.25;;;2.25;;
75878;SDS011;64555;43.430;4.942;2022-11-21T03:12:11;3.00;;;3.00;;
75878;SDS011;64555;43.430;4.942;2022-11-21T03:14:36;4.67;;;4.00;;
75878;SDS011;64555;43.430;4.942;2022-11-21T03:17:02;2.67;;;2.00;;
75878;SDS011;64555;43.430;4.942;2022-11-21T03:19:27;4.00;;;4.00;;
75878;SDS011;64555;43.430;4.942;2022-11-21T03:21:53;3.75;;;3.75;;
75878;SDS011;64555;43.430;4.942;2022-11-21T03:24:18;4.00;;;4.00;;
75878;SDS011;64555;43.430;4.942;2022-11-21T03:26:44;5.00;;;5.00;;
75878;SDS011;64555;43.430;4.942;2022-11-21T03:29:09;3.00;;;3.00;;
75878;SDS011;64555;43.430;4.942;2022-11-21T03:31:34;10.33;;;5.33;;
75878;SDS011;64555;43.430;4.942;2022-11-21T03:34:00;3.00;;;3.00;;
75878;SDS011;64555;43.430;4.942;2022-11-21T03:36:25;4.50;;;4.00;;
75878;SDS011;64555;43.430;4.942;2022-11-21T03:38:50;3.00;;;3.00;;
75878;SDS011;64555;43.430;4.942;2022-11-21T03:41:16;2.00;;;2.00;;
75878;SDS011;64555;43.430;4.942;2022-11-21T03:44:03;5.00;;;3.00;;
75878;SDS011;64555;43.430;4.942;2022-11-21T03:46:30;3.25;;;2.50;;
75878;SDS011;64555;43.430;4.942;2022-11-21T03:48:56;4.75;;;3.00;;
75878;SDS011;64555;43.430;4.942;2022-11-21T03:51:21;3.75;;;3.75;;
75878;SDS011;64555;43.430;4.942;2022-11-21T03:53:46;2.67;;;2.67;;
75878;SDS011;64555;43.430;4.942;2022-11-21T03:56:12;3.00;;;2.00;;
75878;SDS011;64555;43.430;4.942;2022-11-21T03:58:37;6.00;;;4.50;;
75878;SDS011;64555;43.430;4.942;2022-11-21T04:01:02;5.00;;;5.00;;
75878;SDS011;64555;43.430;4.942;2022-11-21T04:03:28;5.00;;;3.00;;
75878;SDS011;64555;43.430;4.942;2022-11-21T04:05:53;4.25;;;4.00;;
75878;SDS011;64555;43.430;4.942;2022-11-21T04:08:18;3.00;;;3.00;;
75878;SDS011;64555;43.430;4.942;2022-11-21T04:10:50;6.33;;;4.00;;
75878;SDS011;64555;43.430;4.942;2022-11-21T04:13:16;4.50;;;4.50;;
75878;SDS011;64555;43.430;4.942;2022-11-21T04:15:41;3.00;;;3.00;;
75878;SDS011;64555;43.430;4.942;2022-11-21T04:18:06;3.00;;;3.00;;
75878;SDS011;64555;43.430;4.942;2022-11-21T04:20:32;3.25;;;3.25;;
75878;SDS011;64555;43.430;4.942;2022-11-21T04:22:57;4.00;;;4.00;;
75878;SDS011;64555;43.430;4.942;2022-11-21T04:25:22;3.00;;;3.00;;
75878;SDS011;64555;43.430;4.942;2022-11-21T04:27:48;4.00;;;4.00;;
75878;SDS011;64555;43.430;4.942;2022-11-21T04:30:13;4.50;;;3.00;;
75878;SDS011;64555;43.430;4.942;2022-11-21T04:32:38;3.50;;;3.00;;
75878;SDS011;64555;43.430;4.942;2022-11-21T04:35:04;5.25;;;3.25;;
75878;SDS011;64555;43.430;4.942;2022-11-21T04:37:29;10.00;;;4.00;;
75878;SDS011;64555;43.430;4.942;2022-11-21T04:39:55;5.00;;;2.00;;
75878;SDS011;64555;43.430;4.942;2022-11-21T04:42:20;4.00;;;3.00;;
75878;SDS011;64555;43.430;4.942;2022-11-21T04:44:45;4.67;;;3.00;;
75878;SDS011;64555;43.430;4.942;2022-11-21T04:47:10;4.00;;;3.00;;
75878;SDS011;64555;43.430;4.942;2022-11-21T04:49:36;3.00;;;3.00;;
75878;SDS011;64555;43.430;4.942;2022-11-21T04:52:01;3.25;;;3.25;;
75878;SDS011;64555;43.430;4.942;2022-11-21T04:54:26;5.67;;;4.00;;
75878;SDS011;64555;43.430;4.942;2022-11-21T04:56:52;5.33;;;5.00;;
75878;SDS011;64555;43.430;4.942;2022-11-21T04:59:17;3.00;;;3.00;;
75878;SDS011;64555;43.430;4.942;2022-11-21T05:01:42;7.00;;;3.00;;
75878;SDS011;64555;43.430;4.942;2022-11-21T05:04:07;3.25;;;3.25;;
75878;SDS011;64555;43.430;4.942;2022-11-21T05:06:33;5.00;;;2.50;;
75878;SDS011;64555;43.430;4.942;2022-11-21T05:08:58;4.40;;;4.00;;
75878;SDS011;64555;43.430;4.942;2022-11-21T05:11:23;4.00;;;3.00;;
75878;SDS011;64555;43.430;4.942;2022-11-21T05:14:12;4.00;;;4.00;;
75878;SDS011;64555;43.430;4.942;2022-11-21T05:16:38;5.50;;;4.00;;
75878;SDS011;64555;43.430;4.942;2022-11-21T05:19:03;3.25;;;3.25;;
75878;SDS011;64555;43.430;4.942;2022-11-21T05:21:28;5.00;;;3.00;;
75878;SDS011;64555;43.430;4.942;2022-11-21T05:23:53;11.33;;;5.00;;
75878;SDS011;64555;43.430;4.942;2022-11-21T05:26:19;4.00;;;4.00;;
75878;SDS011;64555;43.430;4.942;2022-11-21T05:28:44;3.25;;;3.00;;
75878;SDS011;64555;43.430;4.942;2022-11-21T05:31:11;5.00;;;5.00;;
75878;SDS011;64555;43.430;4.942;2022-11-21T05:33:36;6.25;;;5.00;;
75878;SDS011;64555;43.430;4.942;2022-11-21T05:36:02;4.00;;;4.00;;
75878;SDS011;64555;43.430;4.942;2022-11-21T05:38:27;5.00;;;4.00;;
75878;SDS011;64555;43.430;4.942;2022-11-21T05:40:52;6.00;;;5.00;;
75878;SDS011;64555;43.430;4.942;2022-11-21T05:43:18;7.00;;;4.25;;
75878;SDS011;64555;43.430;4.942;2022-11-21T05:46:02;6.40;;;5.00;;
75878;SDS011;64555;43.430;4.942;2022-11-21T05:48:27;5.00;;;5.00;;
75878;SDS011;64555;43.430;4.942;2022-11-21T05:50:52;7.00;;;5.00;;
75878;SDS011;64555;43.430;4.942;2022-11-21T05:53:17;10.00;;;4.00;;
75878;SDS011;64555;43.430;4.942;2022-11-21T05:55:43;6.00;;;4.00;;
75878;SDS011;64555;43.430;4.942;2022-11-21T05:58:08;3.50;;;3.25;;
75878;SDS011;64555;43.430;4.942;2022-11-21T06:00:34;7.60;;;5.00;;
75878;SDS011;64555;43.430;4.942;2022-11-21T06:03:00;4.67;;;4.00;;
75878;SDS011;64555;43.430;4.942;2022-11-21T06:05:44;6.00;;;6.00;;
75878;SDS011;64555;43.430;4.942;2022-11-21T06:08:09;7.00;;;4.25;;
75878;SDS011;64555;43.430;4.942;2022-11-21T06:10:34;12.50;;;6.50;;
75878;SDS011;64555;43.430;4.942;2022-11-21T06:13:00;5.50;;;5.00;;
75878;SDS011;64555;43.430;4.942;2022-11-21T06:15:25;7.00;;;4.00;;
75878;SDS011;64555;43.430;4.942;2022-11-21T06:17:51;9.00;;;5.00;;
75878;SDS011;64555;43.430;4.942;2022-11-21T06:20:16;7.00;;;6.00;;
75878;SDS011;64555;43.430;4.942;2022-11-21T06:22:41;7.00;;;6.00;;
75878;SDS011;64555;43.430;4.942;2022-11-21T06:25:07;6.00;;;4.00;;
75878;SDS011;64555;43.430;4.942;2022-11-21T06:27:32;7.40;;;4.40;;
75878;SDS011;64555;43.430;4.942;2022-11-21T06:29:58;7.00;;;5.00;;
75878;SDS011;64555;43.430;4.942;2022-11-21T06:32:23;6.00;;;6.00;;
75878;SDS011;64555;43.430;4.942;2022-11-21T06:34:48;7.50;;;6.00;;
75878;SDS011;64555;43.430;4.942;2022-11-21T06:37:13;7.00;;;6.00;;
75878;SDS011;64555;43.430;4.942;2022-11-21T06:39:39;6.00;;;6.00;;
75878;SDS011;64555;43.430;4.942;2022-11-21T06:42:04;6.67;;;3.67;;
75878;SDS011;64555;43.430;4.942;2022-11-21T06:44:29;8.00;;;4.00;;
75878;SDS011;64555;43.430;4.942;2022-11-21T06:46:55;6.00;;;6.00;;
75878;SDS011;64555;43.430;4.942;2022-11-21T06:49:20;6.00;;;6.00;;
75878;SDS011;64555;43.430;4.942;2022-11-21T06:51:46;7.80;;;6.80;;
75878;SDS011;64555;43.430;4.942;2022-11-21T06:54:11;6.25;;;4.75;;
75878;SDS011;64555;43.430;4.942;2022-11-21T06:56:36;5.75;;;3.75;;
75878;SDS011;64555;43.430;4.942;2022-11-21T06:59:02;4.00;;;4.00;;
75878;SDS011;64555;43.430;4.942;2022-11-21T07:01:27;5.00;;;5.00;;
75878;SDS011;64555;43.430;4.942;2022-11-21T07:03:52;10.00;;;9.00;;
75878;SDS011;64555;43.430;4.942;2022-11-21T07:06:18;10.00;;;7.50;;
75878;SDS011;64555;43.430;4.942;2022-11-21T07:08:43;8.00;;;7.00;;
75878;SDS011;64555;43.430;4.942;2022-11-21T07:11:13;6.50;;;6.50;;
75878;SDS011;64555;43.430;4.942;2022-11-21T07:13:38;11.00;;;4.60;;
75878;SDS011;64555;43.430;4.942;2022-11-21T07:16:07;5.00;;;5.00;;
75878;SDS011;64555;43.430;4.942;2022-11-21T07:18:33;7.00;;;4.50;;
75878;SDS011;64555;43.430;4.942;2022-11-21T07:20:59;9.00;;;6.00;;
75878;SDS011;64555;43.430;4.942;2022-11-21T07:23:25;6.40;;;6.40;;
75878;SDS011;64555;43.430;4.942;2022-11-21T07:25:50;7.00;;;4.00;;
75878;SDS011;64555;43.430;4.942;2022-11-21T07:28:15;6.00;;;6.00;;
75878;SDS011;64555;43.430;4.942;2022-11-21T07:30:41;6.00;;;4.00;;
75878;SDS011;64555;43.430;4.942;2022-11-21T07:33:06;7.00;;;6.00;;
75878;SDS011;64555;43.430;4.942;2022-11-21T07:35:33;7.00;;;6.00;;
75878;SDS011;64555;43.430;4.942;2022-11-21T07:37:58;7.00;;;6.00;;
75878;SDS011;64555;43.430;4.942;2022-11-21T07:40:23;6.00;;;6.00;;
75878;SDS011;64555;43.430;4.942;2022-11-21T07:42:49;5.33;;;4.33;;
75878;SDS011;64555;43.430;4.942;2022-11-21T07:45:15;9.00;;;8.00;;
75878;SDS011;64555;43.430;4.942;2022-11-21T07:47:40;7.00;;;7.00;;
75878;SDS011;64555;43.430;4.942;2022-11-21T07:50:06;6.00;;;4.00;;
75878;SDS011;64555;43.430;4.942;2022-11-21T07:52:31;6.33;;;6.00;;
75878;SDS011;64555;43.430;4.942;2022-11-21T07:54:56;9.00;;;8.00;;
75878;SDS011;64555;43.430;4.942;2022-11-21T07:57:22;10.50;;;9.00;;
75878;SDS011;64555;43.430;4.942;2022-11-21T07:59:47;14.00;;;8.75;;
75878;SDS011;64555;43.430;4.942;2022-11-21T08:02:23;12.67;;;10.00;;
75878;SDS011;64555;43.430;4.942;2022-11-21T08:04:48;11.00;;;7.50;;
75878;SDS011;64555;43.430;4.942;2022-11-21T08:07:14;8.00;;;8.00;;
75878;SDS011;64555;43.430;4.942;2022-11-21T08:09:40;8.00;;;3.60;;
75878;SDS011;64555;43.430;4.942;2022-11-21T08:12:05;7.00;;;6.00;;
75878;SDS011;64555;43.430;4.942;2022-11-21T08:14:31;6.00;;;4.60;;
75878;SDS011;64555;43.430;4.942;2022-11-21T08:16:57;7.20;;;6.20;;
75878;SDS011;64555;43.430;4.942;2022-11-21T08:19:22;9.67;;;5.67;;
75878;SDS011;64555;43.430;4.942;2022-11-21T08:21:47;8.00;;;7.00;;
75878;SDS011;64555;43.430;4.942;2022-11-21T08:24:12;8.00;;;7.67;;
75878;SDS011;64555;43.430;4.942;2022-11-21T08:26:41;6.00;;;6.00;;
75878;SDS011;64555;43.430;4.942;2022-11-21T08:29:06;8.60;;;6.00;;
75878;SDS011;64555;43.430;4.942;2022-11-21T08:31:31;7.00;;;7.00;;
75878;SDS011;64555;43.430;4.942;2022-11-21T08:33:57;5.50;;;5.00;;
75878;SDS011;64555;43.430;4.942;2022-11-21T08:36:22;2.75;;;2.75;;
75878;SDS011;64555;43.430;4.942;2022-11-21T08:38:47;6.25;;;5.25;;
75878;SDS011;64555;43.430;4.942;2022-11-21T08:41:13;6.00;;;4.00;;
75878;SDS011;64555;43.430;4.942;2022-11-21T08:43:56;5.00;;;5.00;;
75878;SDS011;64555;43.430;4.942;2022-11-21T08:46:22;7.00;;;5.00;;
75878;SDS011;64555;43.430;4.942;2022-11-21T08:48:51;3.00;;;3.00;;
75878;SDS011;64555;43.430;4.942;2022-11-21T08:51:17;5.75;;;5.75;;
75878;SDS011;64555;43.430;4.942;2022-11-21T08:53:42;8.00;;;7.00;;
75878;SDS011;64555;43.430;4.942;2022-11-21T08:56:08;6.50;;;5.50;;
75878;SDS011;64555;43.430;4.942;2022-11-21T08:58:33;4.20;;;4.20;;
75878;SDS011;64555;43.430;4.942;2022-11-21T09:00:58;6.50;;;6.50;;
75878;SDS011;64555;43.430;4.942;2022-11-21T09:03:24;14.25;;;14.25;;
75878;SDS011;64555;43.430;4.942;2022-11-21T09:05:49;20.50;;;16.00;;
75878;SDS011;64555;43.430;4.942;2022-11-21T09:08:15;7.75;;;6.75;;
75878;SDS011;64555;43.430;4.942;2022-11-21T09:10:40;10.50;;;7.00;;
75878;SDS011;64555;43.430;4.942;2022-11-21T09:13:05;9.67;;;4.67;;
75878;SDS011;64555;43.430;4.942;2022-11-21T09:15:30;7.00;;;5.00;;
75878;SDS011;64555;43.430;4.942;2022-11-21T09:20:47;7.00;;;6.00;;
75878;SDS011;64555;43.430;4.942;2022-11-21T09:23:13;6.00;;;4.00;;
75878;SDS011;64555;43.430;4.942;2022-11-21T09:25:38;7.33;;;5.33;;
75878;SDS011;64555;43.430;4.942;2022-11-21T09:28:05;7.00;;;7.00;;
75878;SDS011;64555;43.430;4.942;2022-11-21T09:30:31;8.25;;;6.75;;
75878;SDS011;64555;43.430;4.942;2022-11-21T09:33:00;7.50;;;6.50;;
75878;SDS011;64555;43.430;4.942;2022-11-21T09:35:25;9.00;;;7.00;;
75878;SDS011;64555;43.430;4.942;2022-11-21T09:37:51;10.00;;;7.00;;
75878;SDS011;64555;43.430;4.942;2022-11-21T09:40:16;8.00;;;6.50;;
75878;SDS011;64555;43.430;4.942;2022-11-21T09:42:50;8.40;;;6.00;;
75878;SDS011;64555;43.430;4.942;2022-11-21T09:45:31;13.75;;;12.00;;
75878;SDS011;64555;43.430;4.942;2022-11-21T09:48:00;15.40;;;9.40;;
75878;SDS011;64555;43.430;4.942;2022-11-21T09:50:37;15.40;;;12.40;;
75878;SDS011;64555;43.430;4.942;2022-11-21T09:55:35;17.40;;;15.40;;
75878;SDS011;64555;43.430;4.942;2022-11-21T09:58:04;22.50;;;14.75;;
75878;SDS011;64555;43.430;4.942;2022-11-21T10:00:30;16.00;;;14.00;;
75878;SDS011;64555;43.430;4.942;2022-11-21T10:02:55;19.67;;;14.67;;
75878;SDS011;64555;43.430;4.942;2022-11-21T10:10:52;14.50;;;9.50;;
75878;SDS011;64555;43.430;4.942;2022-11-21T10:15:57;9.60;;;7.00;;
75878;SDS011;64555;43.430;4.942;2022-11-21T10:18:39;11.50;;;11.00;;
75878;SDS011;64555;43.430;4.942;2022-11-21T10:23:50;12.50;;;10.25;;
75878;SDS011;64555;43.430;4.942;2022-11-21T10:26:53;14.00;;;8.40;;
75878;SDS011;64555;43.430;4.942;2022-11-21T10:31:39;12.40;;;7.60;;
75878;SDS011;64555;43.430;4.942;2022-11-21T10:34:12;9.75;;;7.75;;
75878;SDS011;64555;43.430;4.942;2022-11-21T10:36:39;9.00;;;7.40;;
75878;SDS011;64555;43.430;4.942;2022-11-21T10:39:40;11.60;;;9.00;;
75878;SDS011;64555;43.430;4.942;2022-11-21T10:42:03;23.80;;;17.00;;
75878;SDS011;64555;43.430;4.942;2022-11-21T10:44:29;16.00;;;13.00;;
75878;SDS011;64555;43.430;4.942;2022-11-21T10:47:20;17.60;;;15.00;;
75878;SDS011;64555;43.430;4.942;2022-11-21T10:52:23;33.50;;;26.25;;
75878;SDS011;64555;43.430;4.942;2022-11-21T10:57:28;32.75;;;25.25;;
75878;SDS011;64555;43.430;4.942;2022-11-21T11:02:22;56.67;;;42.00;;
75878;SDS011;64555;43.430;4.942;2022-11-21T11:04:47;58.00;;;42.00;;
75878;SDS011;64555;43.430;4.942;2022-11-21T11:07:23;42.67;;;32.00;;
75878;SDS011;64555;43.430;4.942;2022-11-21T11:09:49;38.40;;;30.00;;
75878;SDS011;64555;43.430;4.942;2022-11-21T11:12:29;30.40;;;25.20;;
75878;SDS011;64555;43.430;4.942;2022-11-21T11:15:19;39.25;;;29.75;;
75878;SDS011;64555;43.430;4.942;2022-11-21T11:17:47;42.25;;;31.25;;
75878;SDS011;64555;43.430;4.942;2022-11-21T11:20:36;34.60;;;30.40;;
75878;SDS011;64555;43.430;4.942;2022-11-21T11:22:59;40.50;;;30.50;;
75878;SDS011;64555;43.430;4.942;2022-11-21T11:25:24;39.33;;;29.67;;
75878;SDS011;64555;43.430;4.942;2022-11-21T11:27:49;29.67;;;24.00;;
75878;SDS011;64555;43.430;4.942;2022-11-21T11:30:15;29.00;;;27.50;;
75878;SDS011;64555;43.430;4.942;2022-11-21T11:32:41;17.60;;;16.60;;
75878;SDS011;64555;43.430;4.942;2022-11-21T11:37:41;8.00;;;7.75;;
75878;SDS011;64555;43.430;4.942;2022-11-21T11:40:24;12.00;;;10.00;;
75878;SDS011;64555;43.430;4.942;2022-11-21T11:48:49;9.25;;;5.75;;
75878;SDS011;64555;43.430;4.942;2022-11-21T11:51:26;7.00;;;5.00;;
75878;SDS011;64555;43.430;4.942;2022-11-21T11:53:59;9.00;;;8.00;;
75878;SDS011;64555;43.430;4.942;2022-11-21T11:56:28;7.00;;;6.40;;
75878;SDS011;64555;43.430;4.942;2022-11-21T11:59:10;8.50;;;6.50;;
75878;SDS011;64555;43.430;4.942;2022-11-21T12:01:41;6.50;;;6.50;;
75878;SDS011;64555;43.430;4.942;2022-11-21T12:04:21;9.75;;;7.00;;
75878;SDS011;64555;43.430;4.942;2022-11-21T12:14:36;27.50;;;16.75;;
75878;SDS011;64555;43.430;4.942;2022-11-21T12:17:59;12.20;;;10.00;;
75878;SDS011;64555;43.430;4.942;2022-11-21T12:20:20;8.33;;;7.00;;
75878;SDS011;64555;43.430;4.942;2022-11-21T12:22:47;4.00;;;4.00;;
75878;SDS011;64555;43.430;4.942;2022-11-21T12:25:14;8.25;;;6.00;;
75878;SDS011;64555;43.430;4.942;2022-11-21T12:27:40;7.00;;;7.00;;
75878;SDS011;64555;43.430;4.942;2022-11-21T12:38:19;6.60;;;5.60;;
75878;SDS011;64555;43.430;4.942;2022-11-21T12:54:29;8.40;;;8.40;;
75878;SDS011;64555;43.430;4.942;2022-11-21T12:59:25;9.40;;;8.40;;
75878;SDS011;64555;43.430;4.942;2022-11-21T13:01:57;11.20;;;10.80;;
75878;SDS011;64555;43.430;4.942;2022-11-21T13:04:32;8.50;;;8.25;;
75878;SDS011;64555;43.430;4.942;2022-11-21T13:06:58;23.80;;;16.00;;
75878;SDS011;64555;43.430;4.942;2022-11-21T13:09:25;27.00;;;19.50;;
75878;SDS011;64555;43.430;4.942;2022-11-21T13:27:35;10.00;;;8.00;;
75878;SDS011;64555;43.430;4.942;2022-11-21T13:35:00;9.00;;;7.00;;
75878;SDS011;64555;43.430;4.942;2022-11-21T13:45:45;13.00;;;11.00;;
75878;SDS011;64555;43.430;4.942;2022-11-21T13:55:37;7.00;;;5.25;;
75878;SDS011;64555;43.430;4.942;2022-11-21T14:08:27;14.00;;;7.40;;
75878;SDS011;64555;43.430;4.942;2022-11-21T14:10:53;5.00;;;3.00;;
75878;SDS011;64555;43.430;4.942;2022-11-21T14:13:20;9.40;;;4.20;;
75878;SDS011;64555;43.430;4.942;2022-11-21T14:15:52;3.50;;;3.00;;
75878;SDS011;64555;43.430;4.942;2022-11-21T14:18:24;5.00;;;4.00;;
75878;SDS011;64555;43.430;4.942;2022-11-21T14:20:51;4.00;;;3.00;;
75878;SDS011;64555;43.430;4.942;2022-11-21T14:23:21;6.00;;;3.00;;
75878;SDS011;64555;43.430;4.942;2022-11-21T14:25:48;7.00;;;5.40;;
75878;SDS011;64555;43.430;4.942;2022-11-21T14:28:22;5.00;;;3.40;;
75878;SDS011;64555;43.430;4.942;2022-11-21T14:30:53;5.50;;;4.50;;
75878;SDS011;64555;43.430;4.942;2022-11-21T14:33:32;5.00;;;3.00;;
75878;SDS011;64555;43.430;4.942;2022-11-21T14:36:01;4.00;;;3.00;;
75878;SDS011;64555;43.430;4.942;2022-11-21T14:38:28;4.00;;;4.00;;
75878;SDS011;64555;43.430;4.942;2022-11-21T14:43:37;5.60;;;3.40;;
75878;SDS011;64555;43.430;4.942;2022-11-21T14:46:02;2.00;;;2.00;;
75878;SDS011;64555;43.430;4.942;2022-11-21T14:48:28;4.00;;;3.00;;
75878;SDS011;64555;43.430;4.942;2022-11-21T14:50:54;4.20;;;4.20;;
75878;SDS011;64555;43.430;4.942;2022-11-21T14:53:20;2.25;;;2.25;;
75878;SDS011;64555;43.430;4.942;2022-11-21T14:55:48;5.75;;;3.00;;
75878;SDS011;64555;43.430;4.942;2022-11-21T14:58:14;11.00;;;3.00;;
75878;SDS011;64555;43.430;4.942;2022-11-21T15:00:40;5.60;;;1.00;;
75878;SDS011;64555;43.430;4.942;2022-11-21T15:03:16;1.00;;;1.00;;
75878;SDS011;64555;43.430;4.942;2022-11-21T15:05:42;3.40;;;1.40;;
75878;SDS011;64555;43.430;4.942;2022-11-21T15:08:07;3.00;;;2.50;;
75878;SDS011;64555;43.430;4.942;2022-11-21T15:10:33;4.00;;;2.75;;
75878;SDS011;64555;43.430;4.942;2022-11-21T15:12:59;3.00;;;1.80;;
75878;SDS011;64555;43.430;4.942;2022-11-21T15:15:46;3.00;;;2.50;;
75878;SDS011;64555;43.430;4.942;2022-11-21T15:20:47;3.00;;;3.00;;
75878;SDS011;64555;43.430;4.942;2022-11-21T15:23:24;16.80;;;8.60;;
75878;SDS011;64555;43.430;4.942;2022-11-21T15:25:49;8.00;;;8.00;;
75878;SDS011;64555;43.430;4.942;2022-11-21T15:28:15;20.33;;;13.00;;
75878;SDS011;64555;43.430;4.942;2022-11-21T15:30:41;25.80;;;25.00;;
75878;SDS011;64555;43.430;4.942;2022-11-21T15:33:07;26.50;;;23.75;;
75878;SDS011;64555;43.430;4.942;2022-11-21T15:38:12;18.00;;;18.00;;
75878;SDS011;64555;43.430;4.942;2022-11-21T15:40:37;16.00;;;15.00;;
75878;SDS011;64555;43.430;4.942;2022-11-21T15:43:02;19.00;;;17.00;;
75878;SDS011;64555;43.430;4.942;2022-11-21T15:45:28;16.60;;;16.40;;
75878;SDS011;64555;43.430;4.942;2022-11-21T15:47:53;22.00;;;21.00;;
75878;SDS011;64555;43.430;4.942;2022-11-21T15:50:23;30.60;;;25.40;;
75878;SDS011;64555;43.430;4.942;2022-11-21T15:52:50;35.50;;;30.50;;
75878;SDS011;64555;43.430;4.942;2022-11-21T15:55:20;27.40;;;23.60;;
75878;SDS011;64555;43.430;4.942;2022-11-21T15:57:45;24.80;;;18.80;;
75878;SDS011;64555;43.430;4.942;2022-11-21T16:00:10;17.67;;;17.00;;
75878;SDS011;64555;43.430;4.942;2022-11-21T16:02:36;25.67;;;20.00;;
75878;SDS011;64555;43.430;4.942;2022-11-21T16:05:01;25.25;;;19.00;;
75878;SDS011;64555;43.430;4.942;2022-11-21T16:07:26;24.33;;;23.00;;
75878;SDS011;64555;43.430;4.942;2022-11-21T16:09:53;30.00;;;22.80;;
75878;SDS011;64555;43.430;4.942;2022-11-21T16:12:19;35.40;;;25.80;;
75878;SDS011;64555;43.430;4.942;2022-11-21T16:14:45;32.00;;;22.00;;
75878;SDS011;64555;43.430;4.942;2022-11-21T16:17:10;30.50;;;24.75;;
75878;SDS011;64555;43.430;4.942;2022-11-21T16:19:35;26.00;;;24.50;;
75878;SDS011;64555;43.430;4.942;2022-11-21T16:22:01;30.00;;;24.00;;
75878;SDS011;64555;43.430;4.942;2022-11-21T16:24:26;27.33;;;25.33;;
75878;SDS011;64555;43.430;4.942;2022-11-21T16:26:51;34.00;;;26.50;;
75878;SDS011;64555;43.430;4.942;2022-11-21T16:29:18;31.00;;;26.00;;
75878;SDS011;64555;43.430;4.942;2022-11-21T16:31:43;36.25;;;24.50;;
75878;SDS011;64555;43.430;4.942;2022-11-21T16:34:09;32.75;;;24.50;;
75878;SDS011;64555;43.430;4.942;2022-11-21T16:36:34;27.33;;;22.33;;
75878;SDS011;64555;43.430;4.942;2022-11-21T16:38:59;28.25;;;23.00;;
75878;SDS011;64555;43.430;4.942;2022-11-21T16:41:27;23.25;;;23.25;;
75878;SDS011;64555;43.430;4.942;2022-11-21T16:43:53;24.67;;;20.33;;
75878;SDS011;64555;43.430;4.942;2022-11-21T16:46:20;20.80;;;18.80;;
75878;SDS011;64555;43.430;4.942;2022-11-21T16:48:47;20.00;;;19.00;;
75878;SDS011;64555;43.430;4.942;2022-11-21T16:53:38;19.25;;;19.25;;